sensor_id;sensor_type;location;lat;lon;timestamp;P1;durP1;ratioP1;P2;durP2;ratioP2
20890;SDS011;10605;52.968;8.844;2023-02-07T00:00:33;56.73;;;26.40;;
20890;SDS011;10605;52.968;8.844;2023-02-07T00:02:59;58.17;;;26.87;;
20890;SDS011;10605;52.968;8.844;2023-02-07T00:05:25;70.90;;;27.63;;
20890;SDS011;10605;52.968;8.844;2023-02-07T00:07:52;57.57;;;27.00;;
20890;SDS011;10605;52.968;8.844;2023-02-07T00:10:18;58.80;;;27.50;;
20890;SDS011;10605;52.968;8.844;2023-02-07T00:12:43;56.03;;;26.43;;
20890;SDS011;10605;52.968;8.844;2023-02-07T00:15:09;57.07;;;27.57;;
20890;SDS011;10605;52.968;8.844;2023-02-07T00:17:35;48.83;;;25.30;;
20890;SDS011;10605;52.968;8.844;2023-02-07T00:20:01;55.97;;;25.87;;
20890;SDS011;10605;52.968;8.844;2023-02-07T00:22:27;52.17;;;26.30;;
20890;SDS011;10605;52.968;8.844;2023-02-07T00:24:53;64.50;;;28.73;;
20890;SDS011;10605;52.968;8.844;2023-02-07T00:27:18;55.22;;;27.75;;
20890;SDS011;10605;52.968;8.844;2023-02-07T00:29:44;62.33;;;29.33;;
20890;SDS011;10605;52.968;8.844;2023-02-07T00:32:10;65.07;;;30.10;;
20890;SDS011;10605;52.968;8.844;2023-02-07T00:34:35;59.23;;;29.40;;
20890;SDS011;10605;52.968;8.844;2023-02-07T00:37:02;78.33;;;34.37;;
20890;SDS011;10605;52.968;8.844;2023-02-07T00:39:28;64.77;;;29.73;;
20890;SDS011;10605;52.968;8.844;2023-02-07T00:41:55;61.43;;;30.07;;
20890;SDS011;10605;52.968;8.844;2023-02-07T00:44:21;63.60;;;29.27;;
20890;SDS011;10605;52.968;8.844;2023-02-07T00:46:46;52.97;;;28.00;;
20890;SDS011;10605;52.968;8.844;2023-02-07T00:49:12;59.37;;;28.33;;
20890;SDS011;10605;52.968;8.844;2023-02-07T00:51:38;60.13;;;28.67;;
20890;SDS011;10605;52.968;8.844;2023-02-07T00:54:03;55.47;;;28.63;;
20890;SDS011;10605;52.968;8.844;2023-02-07T00:56:29;54.97;;;27.73;;
20890;SDS011;10605;52.968;8.844;2023-02-07T00:58:55;64.43;;;28.43;;
20890;SDS011;10605;52.968;8.844;2023-02-07T01:01:22;63.50;;;28.77;;
20890;SDS011;10605;52.968;8.844;2023-02-07T01:03:48;53.50;;;27.70;;
20890;SDS011;10605;52.968;8.844;2023-02-07T01:06:14;68.40;;;29.50;;
20890;SDS011;10605;52.968;8.844;2023-02-07T01:08:40;64.80;;;29.63;;
20890;SDS011;10605;52.968;8.844;2023-02-07T01:11:10;61.17;;;30.13;;
20890;SDS011;10605;52.968;8.844;2023-02-07T01:13:39;63.63;;;29.53;;
20890;SDS011;10605;52.968;8.844;2023-02-07T01:16:07;66.32;;;28.73;;
20890;SDS011;10605;52.968;8.844;2023-02-07T01:18:40;58.33;;;30.37;;
20890;SDS011;10605;52.968;8.844;2023-02-07T01:21:12;65.47;;;28.77;;
20890;SDS011;10605;52.968;8.844;2023-02-07T01:23:39;58.70;;;28.40;;
20890;SDS011;10605;52.968;8.844;2023-02-07T01:26:05;61.83;;;27.70;;
20890;SDS011;10605;52.968;8.844;2023-02-07T01:28:30;57.07;;;28.37;;
20890;SDS011;10605;52.968;8.844;2023-02-07T01:30:56;57.93;;;29.03;;
20890;SDS011;10605;52.968;8.844;2023-02-07T01:33:21;62.13;;;28.30;;
20890;SDS011;10605;52.968;8.844;2023-02-07T01:35:47;63.93;;;28.03;;
20890;SDS011;10605;52.968;8.844;2023-02-07T01:38:13;54.70;;;29.17;;
20890;SDS011;10605;52.968;8.844;2023-02-07T01:40:40;55.57;;;27.27;;
20890;SDS011;10605;52.968;8.844;2023-02-07T01:43:05;66.27;;;29.67;;
20890;SDS011;10605;52.968;8.844;2023-02-07T01:45:35;65.00;;;30.90;;
20890;SDS011;10605;52.968;8.844;2023-02-07T01:48:06;68.73;;;30.97;;
20890;SDS011;10605;52.968;8.844;2023-02-07T01:50:36;61.07;;;32.00;;
20890;SDS011;10605;52.968;8.844;2023-02-07T01:53:04;64.17;;;30.80;;
20890;SDS011;10605;52.968;8.844;2023-02-07T01:55:32;65.33;;;30.27;;
20890;SDS011;10605;52.968;8.844;2023-02-07T01:58:02;62.73;;;30.27;;
20890;SDS011;10605;52.968;8.844;2023-02-07T02:00:29;63.03;;;29.30;;
20890;SDS011;10605;52.968;8.844;2023-02-07T02:02:55;59.90;;;30.70;;
20890;SDS011;10605;52.968;8.844;2023-02-07T02:05:21;66.73;;;29.13;;
20890;SDS011;10605;52.968;8.844;2023-02-07T02:07:47;69.63;;;31.13;;
20890;SDS011;10605;52.968;8.844;2023-02-07T02:10:14;62.83;;;29.00;;
20890;SDS011;10605;52.968;8.844;2023-02-07T02:40:02;56.77;;;30.73;;
20890;SDS011;10605;52.968;8.844;2023-02-07T02:45:26;57.23;;;30.10;;
20890;SDS011;10605;52.968;8.844;2023-02-07T02:47:54;69.53;;;32.13;;
20890;SDS011;10605;52.968;8.844;2023-02-07T02:50:23;71.77;;;31.13;;
20890;SDS011;10605;52.968;8.844;2023-02-07T02:52:51;70.00;;;32.73;;
20890;SDS011;10605;52.968;8.844;2023-02-07T02:55:19;66.43;;;32.27;;
20890;SDS011;10605;52.968;8.844;2023-02-07T03:03:17;71.00;;;34.03;;
20890;SDS011;10605;52.968;8.844;2023-02-07T03:12:01;69.60;;;33.20;;
20890;SDS011;10605;52.968;8.844;2023-02-07T03:14:36;74.30;;;34.90;;
20890;SDS011;10605;52.968;8.844;2023-02-07T03:17:12;69.70;;;34.17;;
20890;SDS011;10605;52.968;8.844;2023-02-07T03:19:52;80.00;;;35.53;;
20890;SDS011;10605;52.968;8.844;2023-02-07T03:22:27;68.63;;;33.23;;
20890;SDS011;10605;52.968;8.844;2023-02-07T03:24:55;71.53;;;35.03;;
20890;SDS011;10605;52.968;8.844;2023-02-07T03:27:25;75.80;;;36.97;;
20890;SDS011;10605;52.968;8.844;2023-02-07T03:29:54;68.33;;;34.70;;
20890;SDS011;10605;52.968;8.844;2023-02-07T03:32:27;77.80;;;35.20;;
20890;SDS011;10605;52.968;8.844;2023-02-07T03:35:08;80.73;;;37.37;;
20890;SDS011;10605;52.968;8.844;2023-02-07T03:37:44;80.43;;;34.40;;
20890;SDS011;10605;52.968;8.844;2023-02-07T03:40:22;77.10;;;35.90;;
20890;SDS011;10605;52.968;8.844;2023-02-07T03:42:55;72.80;;;35.70;;
20890;SDS011;10605;52.968;8.844;2023-02-07T03:45:22;76.40;;;36.77;;
20890;SDS011;10605;52.968;8.844;2023-02-07T03:47:48;70.13;;;34.83;;
20890;SDS011;10605;52.968;8.844;2023-02-07T03:50:14;80.77;;;36.60;;
20890;SDS011;10605;52.968;8.844;2023-02-07T03:52:41;76.03;;;34.97;;
20890;SDS011;10605;52.968;8.844;2023-02-07T03:55:06;66.57;;;33.80;;
20890;SDS011;10605;52.968;8.844;2023-02-07T03:57:32;79.47;;;36.23;;
20890;SDS011;10605;52.968;8.844;2023-02-07T03:59:58;74.63;;;35.90;;
20890;SDS011;10605;52.968;8.844;2023-02-07T04:02:24;73.50;;;34.97;;
20890;SDS011;10605;52.968;8.844;2023-02-07T04:04:49;70.33;;;32.90;;
20890;SDS011;10605;52.968;8.844;2023-02-07T04:07:15;73.33;;;34.23;;
20890;SDS011;10605;52.968;8.844;2023-02-07T04:09:41;63.97;;;33.20;;
20890;SDS011;10605;52.968;8.844;2023-02-07T04:12:06;64.60;;;32.93;;
20890;SDS011;10605;52.968;8.844;2023-02-07T04:14:32;66.70;;;33.10;;
20890;SDS011;10605;52.968;8.844;2023-02-07T04:16:58;64.90;;;32.23;;
20890;SDS011;10605;52.968;8.844;2023-02-07T04:19:23;62.70;;;33.03;;
20890;SDS011;10605;52.968;8.844;2023-02-07T04:21:49;59.60;;;31.37;;
20890;SDS011;10605;52.968;8.844;2023-02-07T04:24:15;59.80;;;30.97;;
20890;SDS011;10605;52.968;8.844;2023-02-07T04:26:41;62.73;;;32.87;;
20890;SDS011;10605;52.968;8.844;2023-02-07T04:29:07;61.60;;;30.20;;
20890;SDS011;10605;52.968;8.844;2023-02-07T04:31:32;56.53;;;30.97;;
20890;SDS011;10605;52.968;8.844;2023-02-07T04:33:58;62.87;;;30.10;;
20890;SDS011;10605;52.968;8.844;2023-02-07T04:36:24;53.30;;;29.43;;
20890;SDS011;10605;52.968;8.844;2023-02-07T04:38:50;60.20;;;30.23;;
20890;SDS011;10605;52.968;8.844;2023-02-07T04:41:15;54.07;;;30.93;;
20890;SDS011;10605;52.968;8.844;2023-02-07T04:43:41;62.17;;;31.03;;
20890;SDS011;10605;52.968;8.844;2023-02-07T04:46:07;62.07;;;30.57;;
20890;SDS011;10605;52.968;8.844;2023-02-07T04:48:34;63.20;;;30.70;;
20890;SDS011;10605;52.968;8.844;2023-02-07T04:51:01;49.20;;;29.33;;
20890;SDS011;10605;52.968;8.844;2023-02-07T04:53:27;53.60;;;29.00;;
20890;SDS011;10605;52.968;8.844;2023-02-07T04:55:53;59.30;;;30.97;;
20890;SDS011;10605;52.968;8.844;2023-02-07T04:58:19;56.80;;;30.93;;
20890;SDS011;10605;52.968;8.844;2023-02-07T05:00:46;62.23;;;31.00;;
20890;SDS011;10605;52.968;8.844;2023-02-07T05:03:12;66.77;;;31.37;;
20890;SDS011;10605;52.968;8.844;2023-02-07T05:05:38;67.30;;;31.47;;
20890;SDS011;10605;52.968;8.844;2023-02-07T05:08:08;65.60;;;32.60;;
20890;SDS011;10605;52.968;8.844;2023-02-07T05:10:33;64.77;;;31.83;;
20890;SDS011;10605;52.968;8.844;2023-02-07T05:13:00;52.27;;;29.17;;
20890;SDS011;10605;52.968;8.844;2023-02-07T05:15:26;59.33;;;29.17;;
20890;SDS011;10605;52.968;8.844;2023-02-07T05:17:52;55.73;;;29.57;;
20890;SDS011;10605;52.968;8.844;2023-02-07T05:20:19;59.80;;;30.93;;
20890;SDS011;10605;52.968;8.844;2023-02-07T05:22:44;66.87;;;32.50;;
20890;SDS011;10605;52.968;8.844;2023-02-07T05:25:13;62.53;;;30.87;;
20890;SDS011;10605;52.968;8.844;2023-02-07T05:27:38;62.50;;;33.30;;
20890;SDS011;10605;52.968;8.844;2023-02-07T05:30:04;70.03;;;32.50;;
20890;SDS011;10605;52.968;8.844;2023-02-07T05:32:31;65.10;;;32.23;;
20890;SDS011;10605;52.968;8.844;2023-02-07T05:35:15;62.07;;;31.13;;
20890;SDS011;10605;52.968;8.844;2023-02-07T05:37:40;60.13;;;32.03;;
20890;SDS011;10605;52.968;8.844;2023-02-07T05:40:06;62.73;;;30.87;;
20890;SDS011;10605;52.968;8.844;2023-02-07T05:42:32;57.43;;;29.93;;
20890;SDS011;10605;52.968;8.844;2023-02-07T05:44:58;53.70;;;29.93;;
20890;SDS011;10605;52.968;8.844;2023-02-07T05:47:24;64.30;;;30.53;;
20890;SDS011;10605;52.968;8.844;2023-02-07T05:49:49;62.53;;;31.00;;
20890;SDS011;10605;52.968;8.844;2023-02-07T05:52:15;66.87;;;33.30;;
20890;SDS011;10605;52.968;8.844;2023-02-07T05:54:40;66.63;;;33.97;;
20890;SDS011;10605;52.968;8.844;2023-02-07T05:57:06;75.77;;;34.03;;
20890;SDS011;10605;52.968;8.844;2023-02-07T05:59:32;72.53;;;34.17;;
20890;SDS011;10605;52.968;8.844;2023-02-07T06:01:57;69.87;;;35.77;;
20890;SDS011;10605;52.968;8.844;2023-02-07T06:04:23;72.83;;;36.73;;
20890;SDS011;10605;52.968;8.844;2023-02-07T06:06:49;74.97;;;34.80;;
20890;SDS011;10605;52.968;8.844;2023-02-07T06:09:14;65.13;;;33.03;;
20890;SDS011;10605;52.968;8.844;2023-02-07T06:11:40;67.30;;;33.83;;
20890;SDS011;10605;52.968;8.844;2023-02-07T06:14:06;72.93;;;33.53;;
20890;SDS011;10605;52.968;8.844;2023-02-07T06:16:31;72.13;;;33.43;;
20890;SDS011;10605;52.968;8.844;2023-02-07T06:18:57;72.50;;;33.57;;
20890;SDS011;10605;52.968;8.844;2023-02-07T06:21:22;65.73;;;33.03;;
20890;SDS011;10605;52.968;8.844;2023-02-07T06:23:48;69.53;;;33.57;;
20890;SDS011;10605;52.968;8.844;2023-02-07T06:26:15;62.47;;;32.30;;
20890;SDS011;10605;52.968;8.844;2023-02-07T06:28:41;69.07;;;33.77;;
20890;SDS011;10605;52.968;8.844;2023-02-07T06:31:07;64.83;;;32.37;;
20890;SDS011;10605;52.968;8.844;2023-02-07T06:33:33;63.63;;;33.23;;
20890;SDS011;10605;52.968;8.844;2023-02-07T06:35:58;69.07;;;33.97;;
20890;SDS011;10605;52.968;8.844;2023-02-07T06:38:24;62.40;;;31.57;;
20890;SDS011;10605;52.968;8.844;2023-02-07T06:40:50;63.17;;;32.97;;
20890;SDS011;10605;52.968;8.844;2023-02-07T06:43:16;64.50;;;32.50;;
20890;SDS011;10605;52.968;8.844;2023-02-07T06:45:41;61.90;;;33.20;;
20890;SDS011;10605;52.968;8.844;2023-02-07T06:48:07;65.50;;;32.17;;
20890;SDS011;10605;52.968;8.844;2023-02-07T06:50:33;63.60;;;32.20;;
20890;SDS011;10605;52.968;8.844;2023-02-07T06:52:59;63.67;;;31.87;;
20890;SDS011;10605;52.968;8.844;2023-02-07T06:55:28;62.07;;;32.77;;
20890;SDS011;10605;52.968;8.844;2023-02-07T06:57:56;67.93;;;33.47;;
20890;SDS011;10605;52.968;8.844;2023-02-07T07:00:22;62.43;;;32.77;;
20890;SDS011;10605;52.968;8.844;2023-02-07T07:02:48;63.30;;;32.77;;
20890;SDS011;10605;52.968;8.844;2023-02-07T07:05:14;68.67;;;34.30;;
20890;SDS011;10605;52.968;8.844;2023-02-07T07:07:40;81.23;;;30.67;;
20890;SDS011;10605;52.968;8.844;2023-02-07T07:10:06;68.63;;;33.80;;
20890;SDS011;10605;52.968;8.844;2023-02-07T07:12:32;75.03;;;34.03;;
20890;SDS011;10605;52.968;8.844;2023-02-07T07:14:58;73.27;;;33.50;;
20890;SDS011;10605;52.968;8.844;2023-02-07T07:17:24;64.33;;;32.53;;
20890;SDS011;10605;52.968;8.844;2023-02-07T07:19:50;76.10;;;35.73;;
20890;SDS011;10605;52.968;8.844;2023-02-07T07:22:15;74.03;;;37.07;;
20890;SDS011;10605;52.968;8.844;2023-02-07T07:24:44;89.03;;;37.73;;
20890;SDS011;10605;52.968;8.844;2023-02-07T07:27:10;89.00;;;41.83;;
20890;SDS011;10605;52.968;8.844;2023-02-07T07:29:36;94.53;;;42.03;;
20890;SDS011;10605;52.968;8.844;2023-02-07T07:32:02;95.37;;;44.60;;
20890;SDS011;10605;52.968;8.844;2023-02-07T07:34:27;105.43;;;46.33;;
20890;SDS011;10605;52.968;8.844;2023-02-07T07:36:53;107.83;;;48.03;;
20890;SDS011;10605;52.968;8.844;2023-02-07T07:39:21;107.23;;;47.87;;
20890;SDS011;10605;52.968;8.844;2023-02-07T07:41:47;112.43;;;50.97;;
20890;SDS011;10605;52.968;8.844;2023-02-07T07:44:13;115.33;;;51.97;;
20890;SDS011;10605;52.968;8.844;2023-02-07T07:46:38;124.53;;;53.67;;
20890;SDS011;10605;52.968;8.844;2023-02-07T07:49:04;103.30;;;49.73;;
20890;SDS011;10605;52.968;8.844;2023-02-07T07:51:30;76.93;;;41.77;;
20890;SDS011;10605;52.968;8.844;2023-02-07T07:53:55;71.80;;;39.37;;
20890;SDS011;10605;52.968;8.844;2023-02-07T07:56:21;69.87;;;38.43;;
20890;SDS011;10605;52.968;8.844;2023-02-07T07:58:47;63.03;;;36.10;;
20890;SDS011;10605;52.968;8.844;2023-02-07T08:01:13;52.95;;;31.17;;
20890;SDS011;10605;52.968;8.844;2023-02-07T08:03:39;46.85;;;28.38;;
20890;SDS011;10605;52.968;8.844;2023-02-07T08:06:05;37.33;;;25.03;;
20890;SDS011;10605;52.968;8.844;2023-02-07T08:08:31;38.77;;;24.77;;
20890;SDS011;10605;52.968;8.844;2023-02-07T08:11:04;35.43;;;22.57;;
20890;SDS011;10605;52.968;8.844;2023-02-07T08:13:31;32.55;;;22.10;;
20890;SDS011;10605;52.968;8.844;2023-02-07T08:15:58;30.65;;;21.42;;
20890;SDS011;10605;52.968;8.844;2023-02-07T08:18:24;28.63;;;20.50;;
20890;SDS011;10605;52.968;8.844;2023-02-07T08:20:49;31.30;;;21.05;;
20890;SDS011;10605;52.968;8.844;2023-02-07T08:23:15;30.92;;;21.35;;
20890;SDS011;10605;52.968;8.844;2023-02-07T08:25:41;31.17;;;20.70;;
20890;SDS011;10605;52.968;8.844;2023-02-07T08:28:08;29.13;;;20.10;;
20890;SDS011;10605;52.968;8.844;2023-02-07T08:30:34;31.30;;;21.50;;
20890;SDS011;10605;52.968;8.844;2023-02-07T08:33:00;26.95;;;19.38;;
20890;SDS011;10605;52.968;8.844;2023-02-07T08:35:25;27.80;;;20.23;;
20890;SDS011;10605;52.968;8.844;2023-02-07T08:37:52;24.08;;;18.55;;
20890;SDS011;10605;52.968;8.844;2023-02-07T08:40:19;27.45;;;19.30;;
20890;SDS011;10605;52.968;8.844;2023-02-07T08:42:45;28.58;;;20.33;;
20890;SDS011;10605;52.968;8.844;2023-02-07T08:45:12;26.05;;;19.05;;
20890;SDS011;10605;52.968;8.844;2023-02-07T08:47:40;30.67;;;19.85;;
20890;SDS011;10605;52.968;8.844;2023-02-07T08:50:05;26.90;;;19.70;;
20890;SDS011;10605;52.968;8.844;2023-02-07T08:52:31;28.40;;;20.90;;
20890;SDS011;10605;52.968;8.844;2023-02-07T08:54:57;25.10;;;19.23;;
20890;SDS011;10605;52.968;8.844;2023-02-07T08:57:23;28.70;;;19.48;;
20890;SDS011;10605;52.968;8.844;2023-02-07T08:59:50;24.60;;;19.17;;
20890;SDS011;10605;52.968;8.844;2023-02-07T09:02:16;23.15;;;18.13;;
20890;SDS011;10605;52.968;8.844;2023-02-07T09:04:42;23.17;;;18.25;;
20890;SDS011;10605;52.968;8.844;2023-02-07T09:07:08;26.50;;;18.17;;
20890;SDS011;10605;52.968;8.844;2023-02-07T09:09:35;21.38;;;18.63;;
20890;SDS011;10605;52.968;8.844;2023-02-07T09:12:00;27.23;;;20.17;;
20890;SDS011;10605;52.968;8.844;2023-02-07T09:14:26;30.45;;;18.65;;
20890;SDS011;10605;52.968;8.844;2023-02-07T09:16:52;25.67;;;19.10;;
20890;SDS011;10605;52.968;8.844;2023-02-07T09:19:18;24.60;;;18.52;;
20890;SDS011;10605;52.968;8.844;2023-02-07T09:21:43;22.88;;;17.52;;
20890;SDS011;10605;52.968;8.844;2023-02-07T09:24:09;22.63;;;18.65;;
20890;SDS011;10605;52.968;8.844;2023-02-07T09:26:35;26.92;;;19.17;;
20890;SDS011;10605;52.968;8.844;2023-02-07T09:29:03;24.10;;;18.75;;
20890;SDS011;10605;52.968;8.844;2023-02-07T09:31:29;29.42;;;19.42;;
20890;SDS011;10605;52.968;8.844;2023-02-07T09:33:56;25.40;;;18.90;;
20890;SDS011;10605;52.968;8.844;2023-02-07T09:36:23;29.52;;;19.33;;
20890;SDS011;10605;52.968;8.844;2023-02-07T09:38:50;26.05;;;19.15;;
20890;SDS011;10605;52.968;8.844;2023-02-07T09:41:28;25.17;;;18.67;;
20890;SDS011;10605;52.968;8.844;2023-02-07T09:44:12;25.10;;;19.17;;
20890;SDS011;10605;52.968;8.844;2023-02-07T09:49:37;24.58;;;18.83;;
20890;SDS011;10605;52.968;8.844;2023-02-07T09:52:09;23.75;;;18.70;;
20890;SDS011;10605;52.968;8.844;2023-02-07T09:54:39;28.00;;;19.88;;
20890;SDS011;10605;52.968;8.844;2023-02-07T09:57:41;25.05;;;18.63;;
20890;SDS011;10605;52.968;8.844;2023-02-07T10:00:18;23.58;;;19.27;;
20890;SDS011;10605;52.968;8.844;2023-02-07T10:03:02;22.45;;;18.73;;
20890;SDS011;10605;52.968;8.844;2023-02-07T10:05:37;25.30;;;18.67;;
20890;SDS011;10605;52.968;8.844;2023-02-07T10:08:10;23.42;;;18.98;;
20890;SDS011;10605;52.968;8.844;2023-02-07T10:10:42;24.85;;;19.45;;
20890;SDS011;10605;52.968;8.844;2023-02-07T10:16:05;22.70;;;18.08;;
20890;SDS011;10605;52.968;8.844;2023-02-07T10:18:47;27.70;;;19.27;;
20890;SDS011;10605;52.968;8.844;2023-02-07T10:21:54;21.38;;;17.17;;
20890;SDS011;10605;52.968;8.844;2023-02-07T10:24:21;22.98;;;17.95;;
20890;SDS011;10605;52.968;8.844;2023-02-07T10:27:00;20.90;;;17.20;;
20890;SDS011;10605;52.968;8.844;2023-02-07T10:29:43;24.50;;;17.90;;
20890;SDS011;10605;52.968;8.844;2023-02-07T10:32:25;20.65;;;16.75;;
20890;SDS011;10605;52.968;8.844;2023-02-07T10:34:55;22.83;;;16.95;;
20890;SDS011;10605;52.968;8.844;2023-02-07T10:37:26;21.25;;;16.30;;
20890;SDS011;10605;52.968;8.844;2023-02-07T10:40:10;20.15;;;16.65;;
20890;SDS011;10605;52.968;8.844;2023-02-07T10:42:40;19.15;;;16.05;;
20890;SDS011;10605;52.968;8.844;2023-02-07T10:45:11;19.55;;;15.68;;
20890;SDS011;10605;52.968;8.844;2023-02-07T10:47:38;19.70;;;15.82;;
20890;SDS011;10605;52.968;8.844;2023-02-07T10:50:07;17.40;;;15.60;;
20890;SDS011;10605;52.968;8.844;2023-02-07T10:52:38;21.85;;;15.48;;
20890;SDS011;10605;52.968;8.844;2023-02-07T10:55:10;17.17;;;15.20;;
20890;SDS011;10605;52.968;8.844;2023-02-07T10:57:37;16.70;;;15.00;;
20890;SDS011;10605;52.968;8.844;2023-02-07T11:02:51;15.68;;;13.77;;
20890;SDS011;10605;52.968;8.844;2023-02-07T11:10:41;16.80;;;15.00;;
20890;SDS011;10605;52.968;8.844;2023-02-07T11:13:12;16.27;;;13.43;;
20890;SDS011;10605;52.968;8.844;2023-02-07T11:15:49;15.35;;;13.75;;
20890;SDS011;10605;52.968;8.844;2023-02-07T11:18:25;15.93;;;14.23;;
20890;SDS011;10605;52.968;8.844;2023-02-07T11:21:01;17.67;;;14.15;;
20890;SDS011;10605;52.968;8.844;2023-02-07T11:23:29;16.08;;;13.27;;
20890;SDS011;10605;52.968;8.844;2023-02-07T11:25:54;15.35;;;13.50;;
20890;SDS011;10605;52.968;8.844;2023-02-07T11:28:27;18.13;;;14.25;;
20890;SDS011;10605;52.968;8.844;2023-02-07T11:30:59;14.00;;;12.52;;
20890;SDS011;10605;52.968;8.844;2023-02-07T11:33:30;18.13;;;14.52;;
20890;SDS011;10605;52.968;8.844;2023-02-07T11:38:50;16.50;;;14.45;;
20890;SDS011;10605;52.968;8.844;2023-02-07T11:41:30;15.45;;;13.85;;
20890;SDS011;10605;52.968;8.844;2023-02-07T15:24:47;22.25;;;15.60;;
20890;SDS011;10605;52.968;8.844;2023-02-07T15:27:33;19.15;;;15.82;;
20890;SDS011;10605;52.968;8.844;2023-02-07T15:33:36;22.25;;;16.70;;
20890;SDS011;10605;52.968;8.844;2023-02-07T15:39:47;23.02;;;16.35;;
20890;SDS011;10605;52.968;8.844;2023-02-07T15:52:29;23.75;;;16.38;;
20890;SDS011;10605;52.968;8.844;2023-02-07T15:58:14;23.45;;;16.35;;
20890;SDS011;10605;52.968;8.844;2023-02-07T16:07:29;23.05;;;17.98;;
20890;SDS011;10605;52.968;8.844;2023-02-07T16:13:19;24.35;;;18.23;;
20890;SDS011;10605;52.968;8.844;2023-02-07T16:22:29;26.83;;;19.00;;
20890;SDS011;10605;52.968;8.844;2023-02-07T16:25:21;26.35;;;19.60;;
20890;SDS011;10605;52.968;8.844;2023-02-07T16:28:31;26.75;;;19.40;;
20890;SDS011;10605;52.968;8.844;2023-02-07T16:31:37;28.95;;;18.83;;
20890;SDS011;10605;52.968;8.844;2023-02-07T16:37:36;25.27;;;18.63;;
20890;SDS011;10605;52.968;8.844;2023-02-07T16:40:47;25.30;;;17.90;;
20890;SDS011;10605;52.968;8.844;2023-02-07T16:46:02;26.15;;;17.80;;
20890;SDS011;10605;52.968;8.844;2023-02-07T16:48:35;28.00;;;18.88;;
20890;SDS011;10605;52.968;8.844;2023-02-07T16:51:01;27.10;;;19.35;;
20890;SDS011;10605;52.968;8.844;2023-02-07T16:53:26;29.40;;;20.38;;
20890;SDS011;10605;52.968;8.844;2023-02-07T16:55:52;28.40;;;19.50;;
20890;SDS011;10605;52.968;8.844;2023-02-07T16:58:24;29.42;;;20.55;;
20890;SDS011;10605;52.968;8.844;2023-02-07T17:00:54;26.90;;;19.25;;
20890;SDS011;10605;52.968;8.844;2023-02-07T17:03:21;32.58;;;21.25;;
20890;SDS011;10605;52.968;8.844;2023-02-07T17:05:47;30.55;;;20.92;;
20890;SDS011;10605;52.968;8.844;2023-02-07T17:08:17;30.00;;;20.77;;
20890;SDS011;10605;52.968;8.844;2023-02-07T17:10:58;31.52;;;19.80;;
20890;SDS011;10605;52.968;8.844;2023-02-07T17:13:25;34.08;;;21.77;;
20890;SDS011;10605;52.968;8.844;2023-02-07T17:15:51;32.15;;;21.52;;
20890;SDS011;10605;52.968;8.844;2023-02-07T17:18:17;30.88;;;21.23;;
20890;SDS011;10605;52.968;8.844;2023-02-07T17:20:45;31.75;;;21.30;;
20890;SDS011;10605;52.968;8.844;2023-02-07T17:23:11;32.28;;;21.38;;
20890;SDS011;10605;52.968;8.844;2023-02-07T17:25:37;32.38;;;21.38;;
20890;SDS011;10605;52.968;8.844;2023-02-07T17:28:02;32.65;;;22.35;;
20890;SDS011;10605;52.968;8.844;2023-02-07T17:30:32;35.03;;;22.30;;
20890;SDS011;10605;52.968;8.844;2023-02-07T17:33:02;37.42;;;22.35;;
20890;SDS011;10605;52.968;8.844;2023-02-07T17:35:29;35.70;;;23.50;;
20890;SDS011;10605;52.968;8.844;2023-02-07T17:37:54;43.00;;;24.07;;
20890;SDS011;10605;52.968;8.844;2023-02-07T17:40:31;38.38;;;24.38;;
20890;SDS011;10605;52.968;8.844;2023-02-07T17:42:59;40.92;;;25.10;;
20890;SDS011;10605;52.968;8.844;2023-02-07T17:45:26;41.50;;;26.27;;
20890;SDS011;10605;52.968;8.844;2023-02-07T17:47:53;42.40;;;25.52;;
20890;SDS011;10605;52.968;8.844;2023-02-07T17:50:24;43.17;;;26.93;;
20890;SDS011;10605;52.968;8.844;2023-02-07T17:52:56;45.23;;;28.40;;
20890;SDS011;10605;52.968;8.844;2023-02-07T17:55:22;48.17;;;27.95;;
20890;SDS011;10605;52.968;8.844;2023-02-07T17:57:48;49.05;;;29.23;;
20890;SDS011;10605;52.968;8.844;2023-02-07T18:00:15;50.03;;;28.40;;
20890;SDS011;10605;52.968;8.844;2023-02-07T18:02:43;48.47;;;28.67;;
20890;SDS011;10605;52.968;8.844;2023-02-07T18:05:10;48.95;;;27.58;;
20890;SDS011;10605;52.968;8.844;2023-02-07T18:07:36;53.25;;;29.02;;
20890;SDS011;10605;52.968;8.844;2023-02-07T18:10:02;46.33;;;27.40;;
20890;SDS011;10605;52.968;8.844;2023-02-07T18:12:31;45.67;;;26.90;;
20890;SDS011;10605;52.968;8.844;2023-02-07T18:14:57;51.33;;;27.85;;
20890;SDS011;10605;52.968;8.844;2023-02-07T18:17:23;49.80;;;29.03;;
20890;SDS011;10605;52.968;8.844;2023-02-07T18:19:50;56.33;;;30.23;;
20890;SDS011;10605;52.968;8.844;2023-02-07T18:22:16;58.63;;;31.33;;
20890;SDS011;10605;52.968;8.844;2023-02-07T18:24:42;56.72;;;31.15;;
20890;SDS011;10605;52.968;8.844;2023-02-07T18:27:07;48.92;;;28.65;;
20890;SDS011;10605;52.968;8.844;2023-02-07T18:29:33;57.65;;;30.50;;
20890;SDS011;10605;52.968;8.844;2023-02-07T18:31:59;52.88;;;31.75;;
20890;SDS011;10605;52.968;8.844;2023-02-07T18:34:25;50.55;;;30.60;;
20890;SDS011;10605;52.968;8.844;2023-02-07T18:36:50;45.50;;;28.97;;
20890;SDS011;10605;52.968;8.844;2023-02-07T18:39:16;47.33;;;28.27;;
20890;SDS011;10605;52.968;8.844;2023-02-07T18:41:42;47.17;;;28.75;;
20890;SDS011;10605;52.968;8.844;2023-02-07T18:44:07;43.27;;;27.87;;
20890;SDS011;10605;52.968;8.844;2023-02-07T18:46:33;45.92;;;27.95;;
20890;SDS011;10605;52.968;8.844;2023-02-07T18:48:59;43.87;;;26.33;;
20890;SDS011;10605;52.968;8.844;2023-02-07T18:51:24;40.03;;;26.00;;
20890;SDS011;10605;52.968;8.844;2023-02-07T18:53:51;47.40;;;26.83;;
20890;SDS011;10605;52.968;8.844;2023-02-07T18:56:21;44.03;;;27.57;;
20890;SDS011;10605;52.968;8.844;2023-02-07T18:58:48;42.03;;;25.90;;
20890;SDS011;10605;52.968;8.844;2023-02-07T19:01:17;44.45;;;27.55;;
20890;SDS011;10605;52.968;8.844;2023-02-07T19:03:47;43.47;;;27.40;;
20890;SDS011;10605;52.968;8.844;2023-02-07T19:06:19;43.33;;;26.83;;
20890;SDS011;10605;52.968;8.844;2023-02-07T19:08:46;49.63;;;28.80;;
20890;SDS011;10605;52.968;8.844;2023-02-07T19:11:12;51.17;;;30.40;;
20890;SDS011;10605;52.968;8.844;2023-02-07T19:13:37;54.23;;;31.13;;
20890;SDS011;10605;52.968;8.844;2023-02-07T19:16:04;50.15;;;30.17;;
20890;SDS011;10605;52.968;8.844;2023-02-07T19:18:31;50.88;;;29.77;;
20890;SDS011;10605;52.968;8.844;2023-02-07T19:21:04;45.80;;;27.52;;
20890;SDS011;10605;52.968;8.844;2023-02-07T19:23:59;53.80;;;29.53;;
20890;SDS011;10605;52.968;8.844;2023-02-07T19:26:29;53.93;;;28.47;;
20890;SDS011;10605;52.968;8.844;2023-02-07T19:28:56;53.30;;;29.80;;
20890;SDS011;10605;52.968;8.844;2023-02-07T19:31:22;48.40;;;28.07;;
20890;SDS011;10605;52.968;8.844;2023-02-07T19:33:50;52.47;;;29.23;;
20890;SDS011;10605;52.968;8.844;2023-02-07T19:36:17;49.77;;;29.10;;
20890;SDS011;10605;52.968;8.844;2023-02-07T19:38:43;51.13;;;29.40;;
20890;SDS011;10605;52.968;8.844;2023-02-07T19:41:12;47.80;;;29.60;;
20890;SDS011;10605;52.968;8.844;2023-02-07T19:43:38;50.90;;;29.97;;
20890;SDS011;10605;52.968;8.844;2023-02-07T19:46:03;53.13;;;30.53;;
20890;SDS011;10605;52.968;8.844;2023-02-07T19:48:29;50.70;;;29.90;;
20890;SDS011;10605;52.968;8.844;2023-02-07T19:50:59;54.63;;;33.00;;